createdAt,value
2023-01-13T12:36:37.027Z,100
2023-01-13T12:37:37.922Z,100
2023-01-13T12:38:38.802Z,100
2023-01-13T12:39:39.703Z,100
2023-01-13T12:40:40.575Z,100
2023-01-13T12:41:41.488Z,100
2023-01-13T12:42:42.363Z,100
2023-01-13T12:43:43.243Z,100
2023-01-13T12:44:44.168Z,100
2023-01-13T12:45:45.205Z,100
2023-01-13T12:46:46.314Z,100
2023-01-13T12:47:47.212Z,100
2023-01-13T12:48:48.124Z,100
2023-01-13T12:49:49.025Z,100
2023-01-13T12:50:49.901Z,100
2023-01-13T12:51:50.977Z,100
2023-01-13T12:52:52.091Z,100
2023-01-13T12:53:53.119Z,100
2023-01-13T12:54:54.009Z,100
2023-01-13T12:55:54.880Z,100
2023-01-13T12:56:55.787Z,100
2023-01-13T12:57:56.653Z,100
2023-01-13T12:58:59.963Z,100
2023-01-13T12:59:57.685Z,100
2023-01-13T13:00:58.983Z,100
2023-01-13T13:02:00.700Z,100
2023-01-13T13:03:02.135Z,100
2023-01-13T13:04:03.149Z,100
2023-01-13T13:05:04.006Z,100
2023-01-13T13:06:04.858Z,100
2023-01-13T13:07:05.924Z,100
2023-01-13T13:08:06.869Z,100
2023-01-13T13:09:07.770Z,100
2023-01-13T13:10:08.669Z,100
2023-01-13T13:11:09.813Z,100
2023-01-13T13:12:10.805Z,100
2023-01-13T13:13:11.755Z,100
2023-01-13T13:14:12.712Z,100
2023-01-13T13:15:13.877Z,100
2023-01-13T13:16:15.082Z,100
2023-01-13T13:17:16.854Z,100
2023-01-13T13:18:18.013Z,100
2023-01-13T13:19:19.076Z,100
2023-01-13T13:20:20.037Z,100
2023-01-13T13:21:20.935Z,100
2023-01-13T13:22:21.891Z,100
2023-01-13T13:23:22.956Z,100
2023-01-13T13:24:23.842Z,100
2023-01-13T13:25:24.763Z,100
2023-01-13T13:26:25.639Z,98.55
2023-01-13T13:27:26.545Z,97.11
2023-01-13T13:28:27.436Z,95.48
2023-01-13T13:29:28.326Z,91.96
2023-01-13T13:30:29.524Z,92.35
2023-01-13T13:31:30.728Z,93.65
2023-01-13T13:32:31.604Z,91.99
2023-01-13T13:33:32.464Z,91.98
2023-01-13T13:34:33.369Z,92.39
2023-01-13T13:35:34.296Z,92.12
2023-01-13T13:36:35.275Z,90.24
2023-01-13T13:37:36.349Z,91.49
2023-01-13T13:38:37.239Z,91.12
2023-01-13T13:39:40.233Z,90.5
2023-01-13T13:40:41.137Z,89.38
2023-01-13T13:41:42.374Z,88.44
2023-01-13T13:42:43.542Z,87.44
2023-01-13T13:43:44.414Z,87.75
2023-01-13T13:44:45.295Z,87.65
2023-01-13T13:45:46.440Z,88.09
2023-01-13T13:46:47.712Z,89.24
2023-01-13T13:47:48.891Z,90.23
2023-01-13T13:48:49.759Z,90.2
2023-01-13T13:49:50.682Z,89.99
2023-01-13T13:50:51.570Z,90
2023-01-13T13:51:52.634Z,90.29
2023-01-13T13:52:53.898Z,89.19
2023-01-13T13:53:54.833Z,88.63
2023-01-13T13:54:55.728Z,89.36
2023-01-13T13:55:56.666Z,88.6
2023-01-13T13:56:57.581Z,88.6
2023-01-13T13:57:58.481Z,89.9
2023-01-13T13:58:59.387Z,90.39
2023-01-13T14:00:00.251Z,90.48
2023-01-13T14:01:01.659Z,91.74
2023-01-13T14:02:03.256Z,92.01
2023-01-13T14:03:04.555Z,92.29
2023-01-13T14:04:05.424Z,92.09
2023-01-13T14:05:06.354Z,92.56
2023-01-13T14:06:07.407Z,93.85
2023-01-13T14:07:08.464Z,94.12
2023-01-13T14:08:09.375Z,94.03
2023-01-13T14:09:10.283Z,94.56
2023-01-13T14:10:11.145Z,94.84
2023-01-13T14:11:12.015Z,95.15
2023-01-13T14:12:12.869Z,96.21
2023-01-13T14:13:13.693Z,95.54
2023-01-13T14:14:14.544Z,96.57
2023-01-13T14:15:15.397Z,97.27
2023-01-13T14:16:16.252Z,98.08
2023-01-13T14:17:17.078Z,98.85
2023-01-13T14:18:17.942Z,100
2023-01-13T14:19:18.819Z,100
2023-01-13T14:20:19.687Z,100
2023-01-13T14:21:20.541Z,100
2023-01-13T14:22:21.373Z,100
2023-01-13T14:23:22.297Z,100
2023-01-13T14:24:23.172Z,100
2023-01-13T14:25:24.039Z,100
2023-01-13T14:26:24.932Z,100
2023-01-13T14:27:25.816Z,100
2023-01-13T14:28:26.720Z,100
2023-01-13T14:29:27.607Z,100
2023-01-13T14:30:28.489Z,100
2023-01-13T14:31:29.503Z,100
2023-01-13T14:32:30.496Z,100
2023-01-13T14:33:31.381Z,100
2023-01-13T14:34:33.469Z,100
2023-01-13T14:35:34.364Z,100
2023-01-13T14:36:35.243Z,100
2023-01-13T14:37:36.262Z,100
2023-01-13T14:38:37.260Z,100
2023-01-13T14:39:39.131Z,100
2023-01-13T14:40:40.241Z,100
2023-01-13T14:41:41.249Z,100
2023-01-13T14:42:42.214Z,100
2023-01-13T14:43:43.117Z,100
2023-01-13T14:44:43.969Z,100
2023-01-13T14:45:44.900Z,100
2023-01-13T14:46:45.780Z,100
2023-01-13T14:47:46.702Z,100
2023-01-13T14:48:47.567Z,100
2023-01-13T14:49:48.467Z,100
2023-01-13T14:50:49.342Z,100
2023-01-13T14:51:50.196Z,100
2023-01-13T14:52:51.103Z,100
2023-01-13T14:53:52.212Z,100
2023-01-13T14:54:53.241Z,100
2023-01-13T14:55:54.129Z,100
2023-01-13T14:56:55.024Z,100
2023-01-13T14:57:55.960Z,100
2023-01-13T14:58:56.826Z,100
2023-01-13T14:59:57.721Z,100
2023-01-13T15:00:58.637Z,100
2023-01-13T15:01:59.713Z,100
2023-01-13T15:03:00.740Z,100
2023-01-13T15:04:01.799Z,100
2023-01-13T15:05:02.648Z,100
2023-01-13T15:06:03.506Z,100
2023-01-13T15:07:04.369Z,100
2023-01-13T15:08:05.257Z,100
2023-01-13T15:09:06.283Z,100
2023-01-13T15:10:07.137Z,100
2023-01-13T15:11:08.366Z,100
2023-01-13T15:12:09.308Z,100
2023-01-13T15:13:10.148Z,100
2023-01-13T15:14:11.041Z,100
2023-01-13T15:15:11.939Z,100
2023-01-13T15:16:12.852Z,100
2023-01-13T15:17:13.834Z,100
2023-01-13T15:18:14.716Z,100
2023-01-13T15:19:15.587Z,100
2023-01-13T15:20:16.453Z,100
2023-01-13T15:21:17.486Z,100
2023-01-13T15:22:18.373Z,100
2023-01-13T15:23:19.465Z,100
2023-01-13T15:24:20.386Z,100
2023-01-13T15:25:21.364Z,100
2023-01-13T15:26:22.270Z,100
2023-01-13T15:27:23.149Z,100
2023-01-13T15:28:24.021Z,100
2023-01-13T15:29:25.062Z,100
2023-01-13T15:30:25.929Z,100
2023-01-13T15:31:26.964Z,100
2023-01-13T15:32:28.062Z,100
2023-01-13T15:33:28.954Z,100
2023-01-13T15:34:29.818Z,100
2023-01-13T15:35:30.739Z,100
2023-01-13T15:36:31.649Z,100
2023-01-13T15:37:32.531Z,100
2023-01-13T15:38:33.387Z,100
2023-01-13T15:39:34.309Z,100
2023-01-13T15:40:35.223Z,100
2023-01-13T15:41:36.089Z,100
2023-01-13T15:42:36.955Z,100
2023-01-13T15:43:37.793Z,100
2023-01-13T15:44:38.634Z,100
2023-01-13T15:45:39.471Z,100
2023-01-13T15:46:40.464Z,100
2023-01-13T15:47:41.595Z,100
2023-01-13T15:48:42.467Z,100
2023-01-13T15:49:43.448Z,100
2023-01-13T15:50:44.561Z,100
2023-01-13T15:51:45.627Z,100
2023-01-13T15:52:46.947Z,100
2023-01-13T15:53:47.826Z,100
2023-01-13T15:54:48.859Z,100
2023-01-13T15:55:49.750Z,100
